Погода Амапана неделю

Амапа, Бразилия

25 - 31 июля
  • 25июля
    Сегодня
    +23°
    +36°
    Практически безоблачно
    ВремяПогодаТемператураВлажностьДавлениеВетер, м/сВероятность осадков
    02:00Облачно с прояснениями+25°C76 %757 мм1.3 м/с5 %
    05:00Облачно с прояснениями+25°C83 %757 мм0.8 м/с5 %
    08:00Облачно с прояснениями+27°C76 %759 мм0.6 м/с5 %
    11:00Облачно с прояснениями+33°C45 %759 мм1.4 м/с4 %
    14:00Практически безоблачно+35°C38 %756 мм1.4 м/с3 %
    17:00Практически безоблачно+34°C50 %754 мм1.0 м/с3 %
    20:00Практически безоблачно+28°C74 %756 мм1.5 м/с3 %
    23:00Ясно и безоблачно+25°C78 %757 мм2.5 м/с5 %
  • 26июля
    Пятница
    +24°
    +36°
    Практически безоблачно
    ВремяПогодаТемператураВлажностьДавлениеВетер, м/сВероятность осадков
    02:00Ясно и безоблачно+25°C89 %756 мм2.1 м/с5 %
    05:00Облачно с прояснениями+24°C95 %756 мм0.6 м/с5 %
    08:00Облачно с прояснениями+27°C83 %758 мм0.9 м/с5 %
    11:00Облачно с прояснениями+33°C55 %757 мм0.4 м/с5 %
    14:00Практически безоблачно+35°C41 %755 мм1.5 м/с6 %
    17:00Ясно и безоблачно+33°C50 %754 мм2.0 м/с6 %
    20:00Ясно и безоблачно+29°C69 %755 мм1.4 м/с5 %
    23:00Ясно и безоблачно+26°C76 %756 мм1.6 м/с5 %
  • 27июля
    Суббота
    +24°
    +37°
    Практически безоблачно
    ВремяПогодаТемператураВлажностьДавлениеВетер, м/сВероятность осадков
    02:00Ясно и безоблачно+25°C81 %755 мм1.4 м/с5 %
    05:00Ясно и безоблачно+25°C88 %755 мм1.2 м/с5 %
    08:00Ясно и безоблачно+28°C80 %757 мм0.6 м/с5 %
    11:00Ясно и безоблачно+33°C51 %757 мм1.3 м/с5 %
    14:00Практически безоблачно+37°C33 %754 мм2.6 м/с2 %
    17:00Ясно и безоблачно+34°C45 %754 мм2.3 м/с5 %
    20:00Ясно и безоблачно+28°C76 %755 мм1.4 м/с5 %
    23:00Практически безоблачно+25°C80 %756 мм1.3 м/с5 %
  • 28июля
    Воскресенье
    +23°
    +37°
    Ясно и безоблачно
    ВремяПогодаТемператураВлажностьДавлениеВетер, м/сВероятность осадков
    02:00Ясно и безоблачно+26°C75 %755 мм2.5 м/с4 %
    05:00Практически безоблачно+25°C85 %756 мм0.6 м/с3 %
    08:00Ясно и безоблачно+28°C76 %757 мм0.8 м/с4 %
    11:00Ясно и безоблачно+34°C47 %757 мм2.0 м/с3 %
    14:00Ясно и безоблачно+36°C35 %755 мм2.5 м/с7 %
    17:00Ясно и безоблачно+34°C43 %754 мм2.0 м/с4 %
    20:00Ясно и безоблачно+29°C64 %755 мм1.4 м/с5 %
    23:00Ясно и безоблачно+27°C70 %756 мм2.1 м/с6 %
  • 29июля
    Понедельник
    +23°
    +37°
    Ясно и безоблачно
    ВремяПогодаТемператураВлажностьДавлениеВетер, м/сВероятность осадков
    02:00Ясно и безоблачно+25°C81 %756 мм1.2 м/с5 %
    05:00Ясно и безоблачно+24°C87 %756 мм1.3 м/с4 %
    08:00Ясно и безоблачно+28°C75 %758 мм0.4 м/с19 %
    11:00Ясно и безоблачно+34°C48 %757 мм1.6 м/с14 %
    14:00Ясно и безоблачно+37°C36 %755 мм2.3 м/с6 %
    17:00Ясно и безоблачно+34°C44 %754 мм1.9 м/с7 %
    20:00Практически безоблачно+29°C64 %755 мм2.2 м/с24 %
    23:00Ясно и безоблачно+26°C73 %757 мм1.8 м/с28 %
Мы используем cookies
Соглашаюсь